sensor_id;sensor_type;location;lat;lon;timestamp;P1;durP1;ratioP1;P2;durP2;ratioP2
28481;SDS011;15703;49.588;6.260;2023-07-16T00:00:45;5.22;;;2.42;;
28481;SDS011;15703;49.588;6.260;2023-07-16T00:03:08;5.15;;;2.40;;
28481;SDS011;15703;49.588;6.260;2023-07-16T00:05:31;5.00;;;1.90;;
28481;SDS011;15703;49.588;6.260;2023-07-16T00:07:53;5.32;;;2.28;;
28481;SDS011;15703;49.588;6.260;2023-07-16T00:10:15;5.13;;;1.70;;
28481;SDS011;15703;49.588;6.260;2023-07-16T00:12:38;3.42;;;2.13;;
28481;SDS011;15703;49.588;6.260;2023-07-16T00:15:00;4.38;;;2.33;;
28481;SDS011;15703;49.588;6.260;2023-07-16T00:17:22;3.10;;;1.77;;
28481;SDS011;15703;49.588;6.260;2023-07-16T00:19:45;7.22;;;2.00;;
28481;SDS011;15703;49.588;6.260;2023-07-16T00:22:07;4.20;;;2.30;;
28481;SDS011;15703;49.588;6.260;2023-07-16T00:24:29;7.53;;;2.30;;
28481;SDS011;15703;49.588;6.260;2023-07-16T00:26:52;3.97;;;2.20;;
28481;SDS011;15703;49.588;6.260;2023-07-16T00:29:14;5.18;;;2.22;;
28481;SDS011;15703;49.588;6.260;2023-07-16T00:31:37;5.13;;;2.15;;
28481;SDS011;15703;49.588;6.260;2023-07-16T00:33:59;6.68;;;2.63;;
28481;SDS011;15703;49.588;6.260;2023-07-16T00:36:21;4.45;;;2.38;;
28481;SDS011;15703;49.588;6.260;2023-07-16T00:38:44;7.03;;;2.88;;
28481;SDS011;15703;49.588;6.260;2023-07-16T00:41:07;7.13;;;2.40;;
28481;SDS011;15703;49.588;6.260;2023-07-16T00:43:30;5.57;;;1.90;;
28481;SDS011;15703;49.588;6.260;2023-07-16T00:45:52;6.63;;;2.20;;
28481;SDS011;15703;49.588;6.260;2023-07-16T00:48:14;3.65;;;1.83;;
28481;SDS011;15703;49.588;6.260;2023-07-16T00:50:37;5.80;;;2.30;;
28481;SDS011;15703;49.588;6.260;2023-07-16T00:53:00;3.47;;;2.20;;
28481;SDS011;15703;49.588;6.260;2023-07-16T00:55:24;5.13;;;2.22;;
28481;SDS011;15703;49.588;6.260;2023-07-16T00:57:46;5.35;;;2.20;;
28481;SDS011;15703;49.588;6.260;2023-07-16T01:00:09;4.18;;;2.30;;
28481;SDS011;15703;49.588;6.260;2023-07-16T01:02:31;5.63;;;2.25;;
28481;SDS011;15703;49.588;6.260;2023-07-16T01:04:54;6.80;;;2.60;;
28481;SDS011;15703;49.588;6.260;2023-07-16T01:07:16;5.93;;;2.40;;
28481;SDS011;15703;49.588;6.260;2023-07-16T01:09:41;9.00;;;2.45;;
28481;SDS011;15703;49.588;6.260;2023-07-16T01:12:04;5.88;;;2.42;;
28481;SDS011;15703;49.588;6.260;2023-07-16T01:14:27;5.40;;;2.33;;
28481;SDS011;15703;49.588;6.260;2023-07-16T01:16:49;8.18;;;2.47;;
28481;SDS011;15703;49.588;6.260;2023-07-16T01:19:16;6.97;;;2.17;;
28481;SDS011;15703;49.588;6.260;2023-07-16T01:24:13;7.25;;;2.30;;
28481;SDS011;15703;49.588;6.260;2023-07-16T01:31:50;8.02;;;2.35;;
28481;SDS011;15703;49.588;6.260;2023-07-16T01:34:13;8.30;;;2.40;;
28481;SDS011;15703;49.588;6.260;2023-07-16T01:36:36;6.28;;;2.35;;
28481;SDS011;15703;49.588;6.260;2023-07-16T01:38:59;5.40;;;2.00;;
28481;SDS011;15703;49.588;6.260;2023-07-16T01:41:21;2.97;;;2.00;;
28481;SDS011;15703;49.588;6.260;2023-07-16T01:43:43;11.47;;;2.70;;
28481;SDS011;15703;49.588;6.260;2023-07-16T01:46:06;5.45;;;2.00;;
28481;SDS011;15703;49.588;6.260;2023-07-16T01:48:35;4.53;;;2.60;;
28481;SDS011;15703;49.588;6.260;2023-07-16T01:50:57;4.28;;;2.25;;
28481;SDS011;15703;49.588;6.260;2023-07-16T01:53:19;3.60;;;1.90;;
28481;SDS011;15703;49.588;6.260;2023-07-16T01:55:42;7.80;;;2.10;;
28481;SDS011;15703;49.588;6.260;2023-07-16T01:58:04;6.82;;;2.25;;
28481;SDS011;15703;49.588;6.260;2023-07-16T02:00:27;5.45;;;2.30;;
28481;SDS011;15703;49.588;6.260;2023-07-16T02:02:49;5.75;;;2.17;;
28481;SDS011;15703;49.588;6.260;2023-07-16T02:05:11;6.65;;;2.70;;
28481;SDS011;15703;49.588;6.260;2023-07-16T02:07:35;4.22;;;1.95;;
28481;SDS011;15703;49.588;6.260;2023-07-16T02:09:57;5.13;;;3.28;;
28481;SDS011;15703;49.588;6.260;2023-07-16T02:12:19;6.70;;;2.10;;
28481;SDS011;15703;49.588;6.260;2023-07-16T02:14:41;5.57;;;2.90;;
28481;SDS011;15703;49.588;6.260;2023-07-16T02:17:04;8.50;;;2.50;;
28481;SDS011;15703;49.588;6.260;2023-07-16T02:19:26;4.05;;;2.40;;
28481;SDS011;15703;49.588;6.260;2023-07-16T02:21:49;6.35;;;2.20;;
28481;SDS011;15703;49.588;6.260;2023-07-16T02:24:12;3.38;;;2.15;;
28481;SDS011;15703;49.588;6.260;2023-07-16T02:26:34;6.75;;;2.33;;
28481;SDS011;15703;49.588;6.260;2023-07-16T02:28:57;6.85;;;2.53;;
28481;SDS011;15703;49.588;6.260;2023-07-16T02:31:20;9.52;;;4.05;;
28481;SDS011;15703;49.588;6.260;2023-07-16T02:33:43;4.78;;;2.08;;
28481;SDS011;15703;49.588;6.260;2023-07-16T02:36:05;5.22;;;2.63;;
28481;SDS011;15703;49.588;6.260;2023-07-16T02:38:27;4.63;;;2.63;;
28481;SDS011;15703;49.588;6.260;2023-07-16T02:40:50;4.70;;;2.43;;
28481;SDS011;15703;49.588;6.260;2023-07-16T02:43:12;7.00;;;2.92;;
28481;SDS011;15703;49.588;6.260;2023-07-16T02:45:34;6.30;;;2.13;;
28481;SDS011;15703;49.588;6.260;2023-07-16T02:47:58;8.87;;;2.93;;
28481;SDS011;15703;49.588;6.260;2023-07-16T02:50:21;7.77;;;2.57;;
28481;SDS011;15703;49.588;6.260;2023-07-16T02:52:43;6.15;;;2.58;;
28481;SDS011;15703;49.588;6.260;2023-07-16T02:55:06;7.32;;;2.13;;
28481;SDS011;15703;49.588;6.260;2023-07-16T02:57:28;5.85;;;2.55;;
28481;SDS011;15703;49.588;6.260;2023-07-16T02:59:50;8.53;;;2.87;;
28481;SDS011;15703;49.588;6.260;2023-07-16T03:02:12;6.25;;;2.45;;
28481;SDS011;15703;49.588;6.260;2023-07-16T03:04:35;7.50;;;2.90;;
28481;SDS011;15703;49.588;6.260;2023-07-16T03:06:57;8.68;;;2.60;;
28481;SDS011;15703;49.588;6.260;2023-07-16T03:09:19;7.90;;;2.30;;
28481;SDS011;15703;49.588;6.260;2023-07-16T03:11:42;7.67;;;2.37;;
28481;SDS011;15703;49.588;6.260;2023-07-16T03:14:04;6.13;;;2.50;;
28481;SDS011;15703;49.588;6.260;2023-07-16T03:16:26;6.50;;;2.47;;
28481;SDS011;15703;49.588;6.260;2023-07-16T03:18:48;5.43;;;2.20;;
28481;SDS011;15703;49.588;6.260;2023-07-16T03:21:11;6.73;;;2.83;;
28481;SDS011;15703;49.588;6.260;2023-07-16T03:23:33;4.30;;;2.50;;
28481;SDS011;15703;49.588;6.260;2023-07-16T03:25:56;7.30;;;2.73;;
28481;SDS011;15703;49.588;6.260;2023-07-16T03:28:18;7.93;;;2.73;;
28481;SDS011;15703;49.588;6.260;2023-07-16T03:30:44;8.50;;;2.90;;
28481;SDS011;15703;49.588;6.260;2023-07-16T03:33:06;7.43;;;2.70;;
28481;SDS011;15703;49.588;6.260;2023-07-16T03:35:29;10.97;;;2.33;;
28481;SDS011;15703;49.588;6.260;2023-07-16T03:37:51;6.13;;;2.50;;
28481;SDS011;15703;49.588;6.260;2023-07-16T03:40:17;7.50;;;2.93;;
28481;SDS011;15703;49.588;6.260;2023-07-16T03:42:41;5.27;;;2.90;;
28481;SDS011;15703;49.588;6.260;2023-07-16T03:45:03;5.37;;;2.63;;
28481;SDS011;15703;49.588;6.260;2023-07-16T03:47:26;10.10;;;3.43;;
28481;SDS011;15703;49.588;6.260;2023-07-16T03:49:49;9.27;;;2.67;;
28481;SDS011;15703;49.588;6.260;2023-07-16T03:52:11;10.13;;;3.50;;
28481;SDS011;15703;49.588;6.260;2023-07-16T03:54:34;3.87;;;2.37;;
28481;SDS011;15703;49.588;6.260;2023-07-16T03:56:56;7.67;;;2.80;;
28481;SDS011;15703;49.588;6.260;2023-07-16T03:59:19;6.80;;;2.60;;
28481;SDS011;15703;49.588;6.260;2023-07-16T04:01:41;8.85;;;3.08;;
28481;SDS011;15703;49.588;6.260;2023-07-16T04:04:04;8.60;;;2.83;;
28481;SDS011;15703;49.588;6.260;2023-07-16T04:06:27;9.63;;;3.33;;
28481;SDS011;15703;49.588;6.260;2023-07-16T04:08:49;6.60;;;2.83;;
28481;SDS011;15703;49.588;6.260;2023-07-16T04:11:11;7.83;;;3.20;;
28481;SDS011;15703;49.588;6.260;2023-07-16T04:13:33;4.83;;;2.40;;
28481;SDS011;15703;49.588;6.260;2023-07-16T04:15:56;12.40;;;3.53;;
28481;SDS011;15703;49.588;6.260;2023-07-16T04:18:21;9.83;;;3.67;;
28481;SDS011;15703;49.588;6.260;2023-07-16T04:20:43;8.47;;;2.90;;
28481;SDS011;15703;49.588;6.260;2023-07-16T04:23:05;4.93;;;2.93;;
28481;SDS011;15703;49.588;6.260;2023-07-16T04:25:28;6.40;;;2.83;;
28481;SDS011;15703;49.588;6.260;2023-07-16T04:27:50;6.47;;;2.70;;
28481;SDS011;15703;49.588;6.260;2023-07-16T04:30:13;11.43;;;3.13;;
28481;SDS011;15703;49.588;6.260;2023-07-16T04:32:35;10.10;;;2.28;;
28481;SDS011;15703;49.588;6.260;2023-07-16T04:34:57;6.32;;;2.75;;
28481;SDS011;15703;49.588;6.260;2023-07-16T04:37:20;5.90;;;2.30;;
28481;SDS011;15703;49.588;6.260;2023-07-16T04:39:42;6.68;;;2.72;;
28481;SDS011;15703;49.588;6.260;2023-07-16T04:42:04;11.57;;;3.03;;
28481;SDS011;15703;49.588;6.260;2023-07-16T04:44:27;7.72;;;3.05;;
28481;SDS011;15703;49.588;6.260;2023-07-16T04:46:49;6.60;;;2.70;;
28481;SDS011;15703;49.588;6.260;2023-07-16T04:49:11;7.30;;;3.10;;
28481;SDS011;15703;49.588;6.260;2023-07-16T04:51:33;5.95;;;2.55;;
28481;SDS011;15703;49.588;6.260;2023-07-16T04:53:56;6.57;;;2.58;;
28481;SDS011;15703;49.588;6.260;2023-07-16T04:56:18;9.02;;;2.83;;
28481;SDS011;15703;49.588;6.260;2023-07-16T04:58:44;6.05;;;2.40;;
28481;SDS011;15703;49.588;6.260;2023-07-16T05:01:07;9.43;;;2.70;;
28481;SDS011;15703;49.588;6.260;2023-07-16T05:03:29;5.90;;;2.33;;
28481;SDS011;15703;49.588;6.260;2023-07-16T05:05:52;8.45;;;2.45;;
28481;SDS011;15703;49.588;6.260;2023-07-16T05:08:14;6.78;;;2.40;;
28481;SDS011;15703;49.588;6.260;2023-07-16T05:10:36;7.68;;;2.22;;
28481;SDS011;15703;49.588;6.260;2023-07-16T05:12:59;9.02;;;2.85;;
28481;SDS011;15703;49.588;6.260;2023-07-16T05:15:21;7.18;;;1.98;;
28481;SDS011;15703;49.588;6.260;2023-07-16T05:17:43;7.47;;;2.35;;
28481;SDS011;15703;49.588;6.260;2023-07-16T05:20:06;7.95;;;2.50;;
28481;SDS011;15703;49.588;6.260;2023-07-16T05:22:29;7.00;;;2.20;;
28481;SDS011;15703;49.588;6.260;2023-07-16T05:24:51;5.70;;;2.80;;
28481;SDS011;15703;49.588;6.260;2023-07-16T05:27:13;5.97;;;2.20;;
28481;SDS011;15703;49.588;6.260;2023-07-16T05:29:35;5.85;;;2.63;;
28481;SDS011;15703;49.588;6.260;2023-07-16T05:31:58;6.68;;;2.22;;
28481;SDS011;15703;49.588;6.260;2023-07-16T05:34:20;9.60;;;2.80;;
28481;SDS011;15703;49.588;6.260;2023-07-16T05:36:43;8.23;;;2.75;;
28481;SDS011;15703;49.588;6.260;2023-07-16T05:39:08;10.88;;;2.58;;
28481;SDS011;15703;49.588;6.260;2023-07-16T05:41:30;9.90;;;3.00;;
28481;SDS011;15703;49.588;6.260;2023-07-16T05:43:53;8.23;;;2.78;;
28481;SDS011;15703;49.588;6.260;2023-07-16T05:46:15;6.93;;;2.75;;
28481;SDS011;15703;49.588;6.260;2023-07-16T05:48:38;5.28;;;2.63;;
28481;SDS011;15703;49.588;6.260;2023-07-16T05:51:00;11.70;;;3.22;;
28481;SDS011;15703;49.588;6.260;2023-07-16T05:53:22;7.63;;;3.15;;
28481;SDS011;15703;49.588;6.260;2023-07-16T05:55:45;7.00;;;3.22;;
28481;SDS011;15703;49.588;6.260;2023-07-16T05:58:07;7.75;;;3.10;;
28481;SDS011;15703;49.588;6.260;2023-07-16T06:00:30;10.05;;;3.53;;
28481;SDS011;15703;49.588;6.260;2023-07-16T06:02:52;8.60;;;3.05;;
28481;SDS011;15703;49.588;6.260;2023-07-16T06:05:14;6.78;;;3.40;;
28481;SDS011;15703;49.588;6.260;2023-07-16T06:07:36;5.90;;;3.05;;
28481;SDS011;15703;49.588;6.260;2023-07-16T06:09:59;6.40;;;3.00;;
28481;SDS011;15703;49.588;6.260;2023-07-16T06:12:21;6.03;;;3.55;;
28481;SDS011;15703;49.588;6.260;2023-07-16T06:14:44;7.70;;;3.72;;
28481;SDS011;15703;49.588;6.260;2023-07-16T06:17:06;6.43;;;3.33;;
28481;SDS011;15703;49.588;6.260;2023-07-16T06:19:28;6.50;;;3.40;;
28481;SDS011;15703;49.588;6.260;2023-07-16T06:21:50;8.43;;;3.63;;
28481;SDS011;15703;49.588;6.260;2023-07-16T06:24:13;7.03;;;3.80;;
28481;SDS011;15703;49.588;6.260;2023-07-16T06:26:37;6.75;;;3.67;;
28481;SDS011;15703;49.588;6.260;2023-07-16T06:28:59;7.75;;;3.60;;
28481;SDS011;15703;49.588;6.260;2023-07-16T06:31:22;6.55;;;3.90;;
28481;SDS011;15703;49.588;6.260;2023-07-16T06:33:47;9.57;;;3.85;;
28481;SDS011;15703;49.588;6.260;2023-07-16T06:36:10;8.48;;;3.45;;
28481;SDS011;15703;49.588;6.260;2023-07-16T06:38:32;9.73;;;3.75;;
28481;SDS011;15703;49.588;6.260;2023-07-16T06:40:55;5.95;;;3.15;;
28481;SDS011;15703;49.588;6.260;2023-07-16T06:43:17;4.97;;;3.33;;
28481;SDS011;15703;49.588;6.260;2023-07-16T06:45:39;11.95;;;3.15;;
28481;SDS011;15703;49.588;6.260;2023-07-16T06:48:02;7.05;;;3.35;;
28481;SDS011;15703;49.588;6.260;2023-07-16T06:50:24;6.45;;;3.20;;
28481;SDS011;15703;49.588;6.260;2023-07-16T06:52:46;9.70;;;3.33;;
28481;SDS011;15703;49.588;6.260;2023-07-16T06:55:09;7.60;;;2.90;;
28481;SDS011;15703;49.588;6.260;2023-07-16T06:57:31;12.45;;;4.97;;
28481;SDS011;15703;49.588;6.260;2023-07-16T06:59:54;12.20;;;3.30;;
28481;SDS011;15703;49.588;6.260;2023-07-16T07:02:17;7.75;;;3.03;;
28481;SDS011;15703;49.588;6.260;2023-07-16T07:04:39;9.23;;;3.30;;
28481;SDS011;15703;49.588;6.260;2023-07-16T07:07:01;7.70;;;2.97;;
28481;SDS011;15703;49.588;6.260;2023-07-16T07:09:24;6.55;;;3.45;;
28481;SDS011;15703;49.588;6.260;2023-07-16T07:11:46;8.38;;;3.92;;
28481;SDS011;15703;49.588;6.260;2023-07-16T07:14:08;9.85;;;4.00;;
28481;SDS011;15703;49.588;6.260;2023-07-16T07:16:32;6.18;;;3.30;;
28481;SDS011;15703;49.588;6.260;2023-07-16T07:18:54;6.00;;;3.10;;
28481;SDS011;15703;49.588;6.260;2023-07-16T07:21:17;15.88;;;3.83;;
28481;SDS011;15703;49.588;6.260;2023-07-16T07:23:39;6.75;;;3.10;;
28481;SDS011;15703;49.588;6.260;2023-07-16T07:26:01;8.43;;;3.30;;
28481;SDS011;15703;49.588;6.260;2023-07-16T07:28:23;7.35;;;3.65;;
28481;SDS011;15703;49.588;6.260;2023-07-16T07:30:46;8.05;;;3.47;;
28481;SDS011;15703;49.588;6.260;2023-07-16T07:33:08;8.57;;;3.90;;
28481;SDS011;15703;49.588;6.260;2023-07-16T07:35:31;9.35;;;3.70;;
28481;SDS011;15703;49.588;6.260;2023-07-16T07:37:53;7.10;;;3.40;;
28481;SDS011;15703;49.588;6.260;2023-07-16T07:40:15;6.05;;;3.45;;
28481;SDS011;15703;49.588;6.260;2023-07-16T07:42:38;7.55;;;3.40;;
28481;SDS011;15703;49.588;6.260;2023-07-16T07:45:00;11.68;;;4.05;;
28481;SDS011;15703;49.588;6.260;2023-07-16T07:47:23;7.18;;;3.85;;
28481;SDS011;15703;49.588;6.260;2023-07-16T07:49:45;7.78;;;3.83;;
28481;SDS011;15703;49.588;6.260;2023-07-16T07:52:07;8.40;;;3.30;;
28481;SDS011;15703;49.588;6.260;2023-07-16T07:54:31;7.20;;;3.90;;
28481;SDS011;15703;49.588;6.260;2023-07-16T07:56:54;8.15;;;3.17;;
28481;SDS011;15703;49.588;6.260;2023-07-16T07:59:16;5.40;;;3.40;;
28481;SDS011;15703;49.588;6.260;2023-07-16T08:01:39;7.10;;;3.65;;
28481;SDS011;15703;49.588;6.260;2023-07-16T08:04:01;8.48;;;4.25;;
28481;SDS011;15703;49.588;6.260;2023-07-16T08:06:23;8.68;;;3.72;;
28481;SDS011;15703;49.588;6.260;2023-07-16T08:08:45;5.85;;;3.65;;
28481;SDS011;15703;49.588;6.260;2023-07-16T08:11:08;7.40;;;3.88;;
28481;SDS011;15703;49.588;6.260;2023-07-16T08:13:30;6.82;;;3.30;;
28481;SDS011;15703;49.588;6.260;2023-07-16T08:15:53;9.63;;;3.90;;
28481;SDS011;15703;49.588;6.260;2023-07-16T08:18:15;7.55;;;3.90;;
28481;SDS011;15703;49.588;6.260;2023-07-16T08:20:37;8.43;;;4.28;;
28481;SDS011;15703;49.588;6.260;2023-07-16T08:23:02;6.55;;;4.68;;
28481;SDS011;15703;49.588;6.260;2023-07-16T08:25:24;9.57;;;4.53;;
28481;SDS011;15703;49.588;6.260;2023-07-16T08:27:48;9.05;;;4.32;;
28481;SDS011;15703;49.588;6.260;2023-07-16T08:30:10;8.18;;;5.03;;
28481;SDS011;15703;49.588;6.260;2023-07-16T08:32:32;6.18;;;4.32;;
28481;SDS011;15703;49.588;6.260;2023-07-16T08:34:55;6.18;;;4.70;;
28481;SDS011;15703;49.588;6.260;2023-07-16T08:37:17;7.50;;;4.68;;
28481;SDS011;15703;49.588;6.260;2023-07-16T08:39:40;10.30;;;4.63;;
28481;SDS011;15703;49.588;6.260;2023-07-16T08:42:02;5.95;;;4.05;;
28481;SDS011;15703;49.588;6.260;2023-07-16T08:44:24;9.02;;;4.70;;
28481;SDS011;15703;49.588;6.260;2023-07-16T08:46:47;9.20;;;5.07;;
28481;SDS011;15703;49.588;6.260;2023-07-16T08:49:09;8.73;;;4.72;;
28481;SDS011;15703;49.588;6.260;2023-07-16T08:51:33;8.93;;;4.88;;
28481;SDS011;15703;49.588;6.260;2023-07-16T08:53:56;9.27;;;4.70;;
28481;SDS011;15703;49.588;6.260;2023-07-16T08:56:18;8.60;;;4.70;;
28481;SDS011;15703;49.588;6.260;2023-07-16T08:58:41;9.45;;;4.38;;
28481;SDS011;15703;49.588;6.260;2023-07-16T09:01:06;9.25;;;4.90;;
28481;SDS011;15703;49.588;6.260;2023-07-16T09:03:28;8.52;;;4.85;;
28481;SDS011;15703;49.588;6.260;2023-07-16T09:05:51;7.55;;;4.68;;
28481;SDS011;15703;49.588;6.260;2023-07-16T09:08:13;6.95;;;4.63;;
28481;SDS011;15703;49.588;6.260;2023-07-16T09:10:36;7.82;;;5.25;;
28481;SDS011;15703;49.588;6.260;2023-07-16T09:12:58;9.70;;;4.40;;
28481;SDS011;15703;49.588;6.260;2023-07-16T09:15:22;7.38;;;4.28;;
28481;SDS011;15703;49.588;6.260;2023-07-16T09:17:47;7.95;;;4.82;;
28481;SDS011;15703;49.588;6.260;2023-07-16T09:20:10;9.77;;;4.90;;
28481;SDS011;15703;49.588;6.260;2023-07-16T09:22:33;8.57;;;5.00;;
28481;SDS011;15703;49.588;6.260;2023-07-16T09:24:55;9.35;;;5.10;;
28481;SDS011;15703;49.588;6.260;2023-07-16T09:27:18;6.53;;;4.68;;
28481;SDS011;15703;49.588;6.260;2023-07-16T09:29:40;7.00;;;4.38;;
28481;SDS011;15703;49.588;6.260;2023-07-16T09:32:02;8.38;;;5.57;;
28481;SDS011;15703;49.588;6.260;2023-07-16T09:34:27;9.82;;;4.72;;
28481;SDS011;15703;49.588;6.260;2023-07-16T09:36:49;6.07;;;4.68;;
28481;SDS011;15703;49.588;6.260;2023-07-16T09:39:12;7.65;;;5.18;;
28481;SDS011;15703;49.588;6.260;2023-07-16T09:41:34;8.23;;;5.18;;
28481;SDS011;15703;49.588;6.260;2023-07-16T09:43:59;7.60;;;4.40;;
28481;SDS011;15703;49.588;6.260;2023-07-16T09:46:21;8.23;;;5.35;;
28481;SDS011;15703;49.588;6.260;2023-07-16T09:48:44;8.68;;;5.10;;
28481;SDS011;15703;49.588;6.260;2023-07-16T09:51:06;8.00;;;4.65;;
28481;SDS011;15703;49.588;6.260;2023-07-16T09:53:30;7.35;;;4.65;;
28481;SDS011;15703;49.588;6.260;2023-07-16T09:55:53;7.55;;;4.75;;
28481;SDS011;15703;49.588;6.260;2023-07-16T09:58:16;4.70;;;4.10;;
28481;SDS011;15703;49.588;6.260;2023-07-16T10:00:41;7.38;;;4.25;;
28481;SDS011;15703;49.588;6.260;2023-07-16T10:03:05;7.93;;;4.75;;
28481;SDS011;15703;49.588;6.260;2023-07-16T10:05:28;5.95;;;4.65;;
28481;SDS011;15703;49.588;6.260;2023-07-16T10:07:51;7.18;;;4.53;;
28481;SDS011;15703;49.588;6.260;2023-07-16T10:10:14;8.07;;;5.03;;
28481;SDS011;15703;49.588;6.260;2023-07-16T10:12:40;7.43;;;4.55;;
28481;SDS011;15703;49.588;6.260;2023-07-16T10:15:03;8.00;;;4.40;;
28481;SDS011;15703;49.588;6.260;2023-07-16T10:17:27;5.60;;;4.40;;
28481;SDS011;15703;49.588;6.260;2023-07-16T10:19:56;6.55;;;3.63;;
28481;SDS011;15703;49.588;6.260;2023-07-16T10:22:30;8.02;;;4.47;;
28481;SDS011;15703;49.588;6.260;2023-07-16T10:24:53;5.80;;;3.92;;
28481;SDS011;15703;49.588;6.260;2023-07-16T10:27:15;8.00;;;4.28;;
28481;SDS011;15703;49.588;6.260;2023-07-16T10:29:48;6.43;;;4.18;;
28481;SDS011;15703;49.588;6.260;2023-07-16T10:32:10;8.07;;;4.65;;
28481;SDS011;15703;49.588;6.260;2023-07-16T10:34:35;5.97;;;3.72;;
28481;SDS011;15703;49.588;6.260;2023-07-16T10:36:57;7.68;;;3.70;;
28481;SDS011;15703;49.588;6.260;2023-07-16T10:39:19;5.40;;;3.95;;
28481;SDS011;15703;49.588;6.260;2023-07-16T10:41:42;6.18;;;4.20;;
28481;SDS011;15703;49.588;6.260;2023-07-16T10:44:04;9.00;;;4.10;;
28481;SDS011;15703;49.588;6.260;2023-07-16T10:46:30;8.02;;;4.15;;
28481;SDS011;15703;49.588;6.260;2023-07-16T10:48:55;7.72;;;3.83;;
28481;SDS011;15703;49.588;6.260;2023-07-16T10:51:17;6.20;;;4.15;;
28481;SDS011;15703;49.588;6.260;2023-07-16T10:53:43;6.18;;;3.60;;
28481;SDS011;15703;49.588;6.260;2023-07-16T10:56:05;6.47;;;4.13;;
28481;SDS011;15703;49.588;6.260;2023-07-16T10:58:28;8.43;;;3.78;;
28481;SDS011;15703;49.588;6.260;2023-07-16T11:00:50;6.43;;;3.95;;
28481;SDS011;15703;49.588;6.260;2023-07-16T11:03:16;9.77;;;4.10;;
28481;SDS011;15703;49.588;6.260;2023-07-16T11:05:38;9.77;;;4.25;;
28481;SDS011;15703;49.588;6.260;2023-07-16T11:08:01;7.47;;;3.75;;
28481;SDS011;15703;49.588;6.260;2023-07-16T11:10:24;7.57;;;3.88;;
28481;SDS011;15703;49.588;6.260;2023-07-16T11:12:51;4.07;;;3.38;;
28481;SDS011;15703;49.588;6.260;2023-07-16T11:15:17;7.38;;;4.00;;
28481;SDS011;15703;49.588;6.260;2023-07-16T11:17:39;6.43;;;4.03;;
28481;SDS011;15703;49.588;6.260;2023-07-16T11:20:01;8.02;;;3.83;;
28481;SDS011;15703;49.588;6.260;2023-07-16T11:22:25;8.38;;;3.72;;
28481;SDS011;15703;49.588;6.260;2023-07-16T11:24:49;5.75;;;3.80;;
28481;SDS011;15703;49.588;6.260;2023-07-16T11:27:16;8.45;;;4.07;;
28481;SDS011;15703;49.588;6.260;2023-07-16T11:29:38;7.55;;;3.38;;
28481;SDS011;15703;49.588;6.260;2023-07-16T11:32:00;6.50;;;3.65;;
28481;SDS011;15703;49.588;6.260;2023-07-16T11:34:23;6.63;;;3.20;;
28481;SDS011;15703;49.588;6.260;2023-07-16T11:36:45;6.25;;;3.38;;
28481;SDS011;15703;49.588;6.260;2023-07-16T11:39:11;8.65;;;3.75;;
28481;SDS011;15703;49.588;6.260;2023-07-16T11:41:34;5.57;;;3.58;;
28481;SDS011;15703;49.588;6.260;2023-07-16T11:44:00;6.20;;;3.55;;
28481;SDS011;15703;49.588;6.260;2023-07-16T11:46:24;5.07;;;3.33;;
28481;SDS011;15703;49.588;6.260;2023-07-16T11:48:47;4.20;;;3.47;;
28481;SDS011;15703;49.588;6.260;2023-07-16T11:51:10;3.72;;;2.65;;
28481;SDS011;15703;49.588;6.260;2023-07-16T11:53:32;5.47;;;2.95;;
28481;SDS011;15703;49.588;6.260;2023-07-16T11:55:57;4.53;;;2.80;;
28481;SDS011;15703;49.588;6.260;2023-07-16T11:58:20;7.15;;;3.50;;
28481;SDS011;15703;49.588;6.260;2023-07-16T12:00:44;5.00;;;3.13;;
28481;SDS011;15703;49.588;6.260;2023-07-16T12:03:06;6.93;;;3.15;;
28481;SDS011;15703;49.588;6.260;2023-07-16T12:05:28;4.47;;;3.00;;
28481;SDS011;15703;49.588;6.260;2023-07-16T12:08:13;4.93;;;3.40;;
28481;SDS011;15703;49.588;6.260;2023-07-16T12:10:36;5.40;;;3.22;;
28481;SDS011;15703;49.588;6.260;2023-07-16T12:13:01;6.05;;;3.50;;
28481;SDS011;15703;49.588;6.260;2023-07-16T12:15:23;4.55;;;2.95;;
28481;SDS011;15703;49.588;6.260;2023-07-16T12:18:02;6.10;;;3.63;;
28481;SDS011;15703;49.588;6.260;2023-07-16T12:20:27;5.93;;;3.63;;
28481;SDS011;15703;49.588;6.260;2023-07-16T12:22:54;3.80;;;2.97;;
28481;SDS011;15703;49.588;6.260;2023-07-16T12:25:17;6.25;;;3.30;;
28481;SDS011;15703;49.588;6.260;2023-07-16T12:27:44;5.40;;;3.03;;
28481;SDS011;15703;49.588;6.260;2023-07-16T12:30:06;4.90;;;3.20;;
28481;SDS011;15703;49.588;6.260;2023-07-16T12:32:47;3.85;;;3.15;;
28481;SDS011;15703;49.588;6.260;2023-07-16T12:35:09;5.80;;;3.53;;
28481;SDS011;15703;49.588;6.260;2023-07-16T12:37:32;5.68;;;2.97;;
28481;SDS011;15703;49.588;6.260;2023-07-16T12:39:57;5.47;;;3.25;;
28481;SDS011;15703;49.588;6.260;2023-07-16T12:42:20;7.10;;;3.03;;
28481;SDS011;15703;49.588;6.260;2023-07-16T12:44:42;4.75;;;2.90;;
28481;SDS011;15703;49.588;6.260;2023-07-16T12:47:04;4.93;;;3.13;;
28481;SDS011;15703;49.588;6.260;2023-07-16T12:49:33;5.88;;;3.40;;
28481;SDS011;15703;49.588;6.260;2023-07-16T12:52:00;4.78;;;3.40;;
28481;SDS011;15703;49.588;6.260;2023-07-16T12:54:23;3.92;;;3.20;;
28481;SDS011;15703;49.588;6.260;2023-07-16T12:56:49;4.85;;;3.25;;
28481;SDS011;15703;49.588;6.260;2023-07-16T12:59:11;4.88;;;3.10;;
28481;SDS011;15703;49.588;6.260;2023-07-16T13:01:34;10.25;;;3.70;;
28481;SDS011;15703;49.588;6.260;2023-07-16T13:03:56;6.55;;;3.58;;
28481;SDS011;15703;49.588;6.260;2023-07-16T13:06:22;5.30;;;3.10;;
28481;SDS011;15703;49.588;6.260;2023-07-16T13:08:45;7.18;;;3.78;;
28481;SDS011;15703;49.588;6.260;2023-07-16T13:11:07;7.80;;;3.72;;
28481;SDS011;15703;49.588;6.260;2023-07-16T13:13:29;5.55;;;3.78;;
28481;SDS011;15703;49.588;6.260;2023-07-16T13:15:52;4.53;;;3.63;;
28481;SDS011;15703;49.588;6.260;2023-07-16T13:18:16;8.00;;;3.97;;
28481;SDS011;15703;49.588;6.260;2023-07-16T13:20:39;10.68;;;3.75;;
28481;SDS011;15703;49.588;6.260;2023-07-16T13:23:02;6.32;;;3.80;;
28481;SDS011;15703;49.588;6.260;2023-07-16T13:25:25;4.10;;;3.38;;
28481;SDS011;15703;49.588;6.260;2023-07-16T13:27:48;7.28;;;3.97;;
28481;SDS011;15703;49.588;6.260;2023-07-16T13:30:10;6.63;;;3.65;;
28481;SDS011;15703;49.588;6.260;2023-07-16T13:32:36;5.38;;;3.60;;
28481;SDS011;15703;49.588;6.260;2023-07-16T13:35:01;4.93;;;3.70;;
28481;SDS011;15703;49.588;6.260;2023-07-16T13:37:24;7.97;;;3.95;;
28481;SDS011;15703;49.588;6.260;2023-07-16T13:39:49;5.50;;;3.92;;
28481;SDS011;15703;49.588;6.260;2023-07-16T13:42:14;6.03;;;3.55;;
28481;SDS011;15703;49.588;6.260;2023-07-16T13:44:44;6.15;;;3.60;;
28481;SDS011;15703;49.588;6.260;2023-07-16T13:47:09;6.35;;;3.33;;
28481;SDS011;15703;49.588;6.260;2023-07-16T13:49:34;4.35;;;3.13;;
28481;SDS011;15703;49.588;6.260;2023-07-16T13:51:56;5.72;;;3.33;;
28481;SDS011;15703;49.588;6.260;2023-07-16T13:54:22;5.35;;;3.75;;
28481;SDS011;15703;49.588;6.260;2023-07-16T13:56:47;4.22;;;3.28;;
28481;SDS011;15703;49.588;6.260;2023-07-16T13:59:12;5.05;;;3.58;;
28481;SDS011;15703;49.588;6.260;2023-07-16T14:01:39;5.40;;;3.80;;
28481;SDS011;15703;49.588;6.260;2023-07-16T14:04:06;6.38;;;3.65;;
28481;SDS011;15703;49.588;6.260;2023-07-16T14:06:28;5.55;;;3.63;;
28481;SDS011;15703;49.588;6.260;2023-07-16T14:08:54;7.10;;;3.65;;
28481;SDS011;15703;49.588;6.260;2023-07-16T14:11:16;5.95;;;3.83;;
28481;SDS011;15703;49.588;6.260;2023-07-16T14:13:39;6.28;;;3.80;;
28481;SDS011;15703;49.588;6.260;2023-07-16T14:16:02;7.45;;;3.95;;
28481;SDS011;15703;49.588;6.260;2023-07-16T14:18:33;4.57;;;3.40;;
28481;SDS011;15703;49.588;6.260;2023-07-16T14:21:00;7.97;;;4.57;;
28481;SDS011;15703;49.588;6.260;2023-07-16T14:23:24;4.00;;;3.53;;
28481;SDS011;15703;49.588;6.260;2023-07-16T14:25:49;9.13;;;3.92;;
28481;SDS011;15703;49.588;6.260;2023-07-16T14:28:16;4.30;;;3.90;;
28481;SDS011;15703;49.588;6.260;2023-07-16T14:30:44;6.53;;;3.83;;